createdAt,value
2018-01-10T00:00:09.174Z,30.12
2018-01-10T00:01:10.259Z,31.05
2018-01-10T00:02:11.392Z,32.95
2018-01-10T00:03:12.448Z,30.37
2018-01-10T00:04:13.523Z,34.03
2018-01-10T00:05:14.586Z,33.30
2018-01-10T00:06:16.395Z,30.33
2018-01-10T00:07:17.492Z,26.65
2018-01-10T00:08:19.324Z,33.10
2018-01-10T00:09:20.425Z,35.55
2018-01-10T00:10:21.483Z,28.98
2018-01-10T00:11:23.275Z,32.65
2018-01-10T00:12:24.350Z,31.37
2018-01-10T00:13:25.410Z,29.40
2018-01-10T00:14:26.475Z,33.15
2018-01-10T00:15:27.519Z,30.98
2018-01-10T00:16:28.564Z,34.53
2018-01-10T00:17:29.624Z,28.42
2018-01-10T00:18:31.416Z,33.53
2018-01-10T00:19:32.454Z,29.95
2018-01-10T00:20:33.504Z,30.27
2018-01-10T00:21:34.572Z,30.50
2018-01-10T00:22:35.643Z,33.67
2018-01-10T00:23:36.693Z,33.65
2018-01-10T00:24:37.762Z,31.33
2018-01-10T00:25:39.539Z,31.45
2018-01-10T00:26:40.600Z,24.90
2018-01-10T00:27:41.651Z,29.90
2018-01-10T00:28:42.708Z,30.27
2018-01-10T00:29:43.807Z,27.85
2018-01-10T00:30:44.855Z,28.08
2018-01-10T00:31:45.908Z,30.48
2018-01-10T00:32:46.945Z,30.23
2018-01-10T00:33:48.035Z,34.50
2018-01-10T00:34:49.089Z,27.17
2018-01-10T00:35:50.925Z,30.02
2018-01-10T00:36:51.995Z,32.80
2018-01-10T00:37:53.059Z,30.23
2018-01-10T00:38:54.107Z,24.85
2018-01-10T00:39:55.159Z,26.42
2018-01-10T00:40:56.197Z,28.95
2018-01-10T00:41:57.978Z,25.60
2018-01-10T00:42:59.092Z,29.50
2018-01-10T00:44:00.946Z,28.17
2018-01-10T00:45:02.177Z,26.87
2018-01-10T00:46:03.320Z,24.63
2018-01-10T00:47:04.445Z,29.83
2018-01-10T00:48:06.292Z,25.77
2018-01-10T00:49:07.343Z,33.88
2018-01-10T00:50:08.667Z,36.67
2018-01-10T00:51:09.765Z,26.12
2018-01-10T00:52:10.911Z,27.85
2018-01-10T00:53:12.000Z,29.25
2018-01-10T00:54:13.280Z,27.33
2018-01-10T00:55:15.107Z,29.33
2018-01-10T00:56:16.201Z,30.30
2018-01-10T00:57:18.151Z,31.87
2018-01-10T00:58:19.218Z,26.62
2018-01-10T00:59:20.401Z,30.77
2018-01-10T01:00:21.698Z,30.40
2018-01-10T01:01:23.519Z,32.47
2018-01-10T01:02:24.574Z,30.58
2018-01-10T01:03:25.627Z,31.60
2018-01-10T01:04:27.431Z,30.33
2018-01-10T01:05:28.507Z,32.58
2018-01-10T01:06:30.322Z,26.27
2018-01-10T01:07:31.451Z,25.12
2018-01-10T01:08:32.548Z,37.20
2018-01-10T01:09:33.985Z,28.12
2018-01-10T01:10:35.452Z,34.13
2018-01-10T01:11:36.765Z,28.30
2018-01-10T01:12:37.976Z,30.67
2018-01-10T01:13:39.804Z,25.10
2018-01-10T01:14:40.888Z,26.65
2018-01-10T01:15:41.973Z,29.33
2018-01-10T01:16:43.050Z,22.90
2018-01-10T01:17:44.139Z,30.55
2018-01-10T01:18:45.978Z,27.70
2018-01-10T01:19:47.050Z,28.20
2018-01-10T01:20:48.139Z,30.05
2018-01-10T01:21:49.215Z,28.98
2018-01-10T01:22:50.307Z,25.85
2018-01-10T01:23:51.409Z,24.23
2018-01-10T01:24:52.482Z,25.67
2018-01-10T01:25:53.591Z,27.70
2018-01-10T01:26:54.669Z,25.00
2018-01-10T01:27:56.491Z,29.05
2018-01-10T01:28:57.556Z,31.25
2018-01-10T01:29:58.632Z,31.12
2018-01-10T01:30:59.712Z,29.40
2018-01-10T01:32:01.510Z,26.90
2018-01-10T01:33:02.609Z,30.85
2018-01-10T01:34:04.419Z,25.67
2018-01-10T01:35:05.512Z,26.65
2018-01-10T01:36:06.603Z,33.30
2018-01-10T01:37:08.431Z,27.37
2018-01-10T01:38:09.531Z,27.33
2018-01-10T01:39:10.623Z,27.10
2018-01-10T01:40:11.720Z,25.50
2018-01-10T01:41:12.807Z,26.10
2018-01-10T01:42:13.893Z,26.92
2018-01-10T01:43:15.009Z,26.92
2018-01-10T01:44:16.088Z,31.23
2018-01-10T01:45:17.174Z,27.92
2018-01-10T01:46:18.268Z,28.58
2018-01-10T01:47:19.335Z,25.08
2018-01-10T01:48:20.435Z,32.42
2018-01-10T01:49:21.515Z,28.45
2018-01-10T01:50:22.607Z,29.17
2018-01-10T01:51:23.718Z,32.10
2018-01-10T01:52:24.831Z,29.95
2018-01-10T01:53:25.930Z,30.67
2018-01-10T01:54:27.012Z,33.80
2018-01-10T01:55:28.844Z,26.00
2018-01-10T01:56:29.936Z,29.92
2018-01-10T01:57:31.023Z,28.42
2018-01-10T01:58:32.858Z,30.92
2018-01-10T01:59:33.991Z,27.60
2018-01-10T02:00:35.115Z,26.10
2018-01-10T02:01:36.211Z,24.80
2018-01-10T02:02:37.304Z,24.95
2018-01-10T02:03:39.128Z,26.58
2018-01-10T02:04:40.203Z,25.35
2018-01-10T02:05:42.017Z,28.87
2018-01-10T02:06:43.119Z,25.08
2018-01-10T02:07:44.203Z,28.08
2018-01-10T02:08:46.023Z,24.77
2018-01-10T02:09:47.088Z,30.08
2018-01-10T02:10:48.929Z,29.73
2018-01-10T02:11:50.735Z,26.65
2018-01-10T02:12:51.818Z,23.73
2018-01-10T02:13:53.639Z,28.17
2018-01-10T02:14:54.711Z,23.30
2018-01-10T02:15:55.815Z,29.87
2018-01-10T02:16:56.912Z,30.90
2018-01-10T02:17:57.991Z,29.92
2018-01-10T02:18:59.871Z,24.75
2018-01-10T02:20:00.964Z,33.10
2018-01-10T02:21:02.057Z,28.42
2018-01-10T02:22:03.133Z,25.30
2018-01-10T02:23:04.228Z,28.55
2018-01-10T02:24:05.311Z,29.30
2018-01-10T02:25:06.390Z,29.95
2018-01-10T02:26:07.471Z,30.77
2018-01-10T02:27:09.303Z,29.83
2018-01-10T02:28:10.375Z,32.45
2018-01-10T02:29:11.449Z,33.50
2018-01-10T02:30:12.524Z,30.15
2018-01-10T02:31:13.599Z,29.83
2018-01-10T02:32:14.691Z,30.55
2018-01-10T02:33:15.766Z,28.62
2018-01-10T02:34:16.891Z,31.60
2018-01-10T02:35:17.963Z,27.42
2018-01-10T02:36:19.047Z,26.98
2018-01-10T02:37:20.132Z,31.90
2018-01-10T02:38:21.203Z,29.52
2018-01-10T02:39:22.280Z,27.85
2018-01-10T02:40:23.352Z,25.48
2018-01-10T02:41:25.189Z,28.48
2018-01-10T02:42:37.315Z,26.73
2018-01-10T02:43:38.409Z,29.37
2018-01-10T02:44:39.495Z,37.70
2018-01-10T02:45:40.607Z,29.42
2018-01-10T02:46:41.684Z,32.58
2018-01-10T02:47:42.777Z,33.42
2018-01-10T02:48:44.623Z,31.98
2018-01-10T02:49:45.711Z,33.15
2018-01-10T02:50:46.797Z,45.45
2018-01-10T02:51:47.868Z,35.60
2018-01-10T02:52:48.942Z,28.02
2018-01-10T02:53:50.015Z,31.15
2018-01-10T02:54:51.083Z,33.35
2018-01-10T02:55:52.911Z,37.35
2018-01-10T02:56:53.975Z,32.78
2018-01-10T02:57:55.794Z,34.40
2018-01-10T02:58:56.891Z,33.80
2018-01-10T02:59:57.955Z,29.83
2018-01-10T03:00:59.023Z,45.92
2018-01-10T03:02:00.098Z,34.28
2018-01-10T03:03:01.174Z,32.78
2018-01-10T03:04:03.027Z,33.10
2018-01-10T03:05:04.116Z,34.63
2018-01-10T03:06:05.198Z,31.05
2018-01-10T03:07:07.008Z,31.42
2018-01-10T03:08:08.087Z,32.08
2018-01-10T03:09:09.204Z,36.03
2018-01-10T03:10:10.274Z,32.65
2018-01-10T03:11:11.368Z,30.67
2018-01-10T03:12:13.198Z,31.65
2018-01-10T03:13:14.285Z,32.20
2018-01-10T03:14:15.380Z,30.25
2018-01-10T03:15:17.208Z,31.08
2018-01-10T03:16:18.298Z,28.45
2018-01-10T03:17:19.374Z,43.80
2018-01-10T03:18:20.463Z,36.03
2018-01-10T03:19:21.532Z,29.40
2018-01-10T03:20:22.624Z,33.45
2018-01-10T03:21:23.735Z,49.42
2018-01-10T03:22:25.568Z,36.08
2018-01-10T03:23:26.643Z,34.00
2018-01-10T03:24:27.747Z,34.47
2018-01-10T03:25:28.831Z,31.45
2018-01-10T03:26:29.905Z,29.37
2018-01-10T03:27:31.727Z,34.10
2018-01-10T03:28:32.803Z,31.52
2018-01-10T03:29:34.615Z,33.13
2018-01-10T03:30:35.697Z,34.42
2018-01-10T03:31:36.775Z,36.15
2018-01-10T03:32:37.851Z,31.55
2018-01-10T03:33:38.927Z,34.97
2018-01-10T03:34:40.016Z,29.27
2018-01-10T03:35:41.103Z,33.08
2018-01-10T03:36:42.186Z,34.17
2018-01-10T03:37:43.276Z,36.80
2018-01-10T03:38:44.360Z,32.40
2018-01-10T03:39:45.443Z,31.95
2018-01-10T03:40:46.531Z,36.80
2018-01-10T03:41:47.658Z,30.48
2018-01-10T03:42:48.688Z,32.10
2018-01-10T03:43:49.755Z,29.85
2018-01-10T03:44:50.826Z,31.85
2018-01-10T03:45:51.910Z,27.27
2018-01-10T03:46:52.984Z,33.33
2018-01-10T03:47:54.059Z,25.75
2018-01-10T03:48:55.145Z,32.05
2018-01-10T03:49:56.968Z,35.25
2018-01-10T03:50:58.052Z,30.55
2018-01-10T03:51:59.143Z,30.17
2018-01-10T03:53:00.236Z,34.60
2018-01-10T03:54:01.335Z,31.48
2018-01-10T03:55:02.430Z,37.03
2018-01-10T03:56:03.523Z,30.60
2018-01-10T03:57:05.267Z,34.38
2018-01-10T03:58:06.407Z,35.70
2018-01-10T03:59:07.511Z,27.50
2018-01-10T04:00:08.602Z,34.90
2018-01-10T04:01:09.687Z,29.70
2018-01-10T04:02:10.771Z,35.60
2018-01-10T04:03:11.855Z,29.00
2018-01-10T04:04:13.681Z,36.58
2018-01-10T04:05:14.755Z,32.20
2018-01-10T04:06:15.831Z,25.95
2018-01-10T04:07:16.903Z,29.27
2018-01-10T04:08:17.979Z,32.50
2018-01-10T04:09:19.052Z,28.48
2018-01-10T04:10:20.872Z,30.50
2018-01-10T04:11:21.975Z,34.78
2018-01-10T04:12:23.055Z,30.30
2018-01-10T04:13:24.872Z,32.13
2018-01-10T04:14:25.959Z,38.67
2018-01-10T04:15:27.770Z,30.00
2018-01-10T04:16:28.914Z,32.97
2018-01-10T04:17:30.064Z,32.97
2018-01-10T04:18:31.135Z,33.55
2018-01-10T04:19:32.207Z,28.90
2018-01-10T04:20:33.400Z,30.35
2018-01-10T04:21:34.485Z,30.42
2018-01-10T04:22:35.560Z,29.98
2018-01-10T04:23:36.752Z,32.45
2018-01-10T04:24:37.839Z,30.27
2018-01-10T04:25:38.924Z,29.60
2018-01-10T04:26:40.744Z,34.92
2018-01-10T04:27:42.495Z,30.62
2018-01-10T04:28:43.570Z,39.67
2018-01-10T04:29:45.388Z,32.03
2018-01-10T04:30:46.459Z,34.15
2018-01-10T04:31:47.547Z,28.98
2018-01-10T04:32:48.617Z,37.08
2018-01-10T04:33:49.707Z,28.85
2018-01-10T04:34:50.778Z,35.10
2018-01-10T04:35:52.595Z,28.60
2018-01-10T04:36:53.709Z,35.83
2018-01-10T04:37:55.599Z,30.70
2018-01-10T04:38:57.407Z,32.95
2018-01-10T04:39:58.495Z,35.05
2018-01-10T04:40:59.563Z,29.20
2018-01-10T04:42:00.643Z,33.65
2018-01-10T04:43:01.732Z,32.55
2018-01-10T04:44:02.823Z,27.65
2018-01-10T04:45:04.635Z,30.58
2018-01-10T04:46:05.798Z,28.23
2018-01-10T04:47:06.890Z,33.25
2018-01-10T04:48:08.099Z,31.85
2018-01-10T04:49:09.175Z,35.10
2018-01-10T04:50:10.231Z,34.17
2018-01-10T04:51:12.038Z,32.88
2018-01-10T04:52:13.110Z,28.80
2018-01-10T04:53:14.926Z,29.98
2018-01-10T04:54:16.003Z,28.77
2018-01-10T04:55:17.835Z,30.30
2018-01-10T04:56:19.655Z,30.77
2018-01-10T04:57:20.718Z,28.77
2018-01-10T04:58:22.526Z,33.15
2018-01-10T04:59:23.583Z,30.77
2018-01-10T05:00:24.663Z,27.75
2018-01-10T05:01:25.742Z,28.90
2018-01-10T05:02:26.815Z,31.00
2018-01-10T05:03:28.623Z,28.42
2018-01-10T05:04:29.673Z,33.10
2018-01-10T05:05:30.757Z,30.40
2018-01-10T05:06:31.815Z,31.00
2018-01-10T05:07:32.920Z,41.83
2018-01-10T05:08:33.987Z,33.72
2018-01-10T05:09:35.072Z,33.67
2018-01-10T05:10:36.234Z,31.15
2018-01-10T05:11:37.295Z,34.55
2018-01-10T05:12:38.398Z,37.67
2018-01-10T05:13:39.477Z,31.58
2018-01-10T05:14:41.274Z,30.42
2018-01-10T05:15:42.340Z,33.95
2018-01-10T05:16:44.159Z,38.45
2018-01-10T05:17:45.245Z,39.72
2018-01-10T05:18:46.331Z,36.13
2018-01-10T05:19:47.455Z,41.25
2018-01-10T05:20:48.515Z,29.15
2018-01-10T05:21:49.580Z,30.40
2018-01-10T05:22:51.396Z,32.78
2018-01-10T05:23:52.460Z,28.45
2018-01-10T05:24:53.544Z,36.58
2018-01-10T05:25:54.642Z,37.30
2018-01-10T05:26:55.742Z,37.88
2018-01-10T05:27:57.555Z,36.63
2018-01-10T05:28:58.639Z,32.75
2018-01-10T05:29:59.707Z,29.15
2018-01-10T05:31:00.771Z,32.22
2018-01-10T05:32:01.866Z,30.10
2018-01-10T05:33:02.936Z,38.75
2018-01-10T05:34:04.202Z,31.92
2018-01-10T05:35:06.023Z,31.60
2018-01-10T05:36:07.096Z,33.88
2018-01-10T05:37:08.164Z,27.48
2018-01-10T05:38:09.240Z,32.47
2018-01-10T05:39:10.311Z,30.92
2018-01-10T05:40:11.418Z,35.88
2018-01-10T05:41:12.493Z,31.08
2018-01-10T05:42:13.567Z,31.23
2018-01-10T05:43:15.495Z,27.65
2018-01-10T05:44:16.568Z,27.67
2018-01-10T05:45:17.632Z,34.42
2018-01-10T05:46:18.790Z,29.35
2018-01-10T05:47:19.854Z,31.58
2018-01-10T05:48:21.671Z,30.52
2018-01-10T05:49:22.723Z,28.48
2018-01-10T05:50:24.588Z,31.17
2018-01-10T05:51:31.331Z,31.62
2018-01-10T05:52:32.685Z,35.45
2018-01-10T05:53:33.739Z,36.42
2018-01-10T05:54:34.822Z,30.83
2018-01-10T05:55:35.887Z,32.97
2018-01-10T05:56:36.954Z,31.92
2018-01-10T05:57:38.037Z,31.92
2018-01-10T05:58:39.859Z,34.42
2018-01-10T05:59:41.003Z,32.03
2018-01-10T06:00:42.070Z,30.05
2018-01-10T06:01:43.140Z,33.75
2018-01-10T06:02:44.193Z,25.88
2018-01-10T06:03:46.035Z,29.02
2018-01-10T06:04:47.115Z,29.75
2018-01-10T06:05:48.928Z,30.02
2018-01-10T06:06:49.999Z,26.85
2018-01-10T06:07:51.084Z,33.78
2018-01-10T06:08:52.149Z,32.80
2018-01-10T06:09:53.215Z,32.38
2018-01-10T06:10:54.315Z,28.42
2018-01-10T06:12:07.423Z,35.05
2018-01-10T06:13:08.861Z,31.42
2018-01-10T06:14:11.053Z,27.23
2018-01-10T06:15:13.012Z,30.92
2018-01-10T06:16:14.545Z,30.33
2018-01-10T06:17:15.964Z,30.45
2018-01-10T06:18:17.174Z,27.83
2018-01-10T06:19:18.253Z,31.75
2018-01-10T06:20:19.415Z,35.20
2018-01-10T06:21:20.486Z,33.22
2018-01-10T06:22:21.539Z,33.90
2018-01-10T06:23:22.610Z,32.80
2018-01-10T06:24:23.684Z,32.90
2018-01-10T06:25:24.807Z,28.52
2018-01-10T06:26:25.887Z,28.48
2018-01-10T06:27:27.736Z,24.12
2018-01-10T06:28:28.826Z,26.40
2018-01-10T06:29:29.894Z,27.02
2018-01-10T06:30:30.959Z,27.08
2018-01-10T06:31:32.012Z,24.87
2018-01-10T06:32:33.091Z,27.65
2018-01-10T06:33:34.198Z,26.35
2018-01-10T06:34:36.009Z,29.83
2018-01-10T06:35:37.139Z,27.00
2018-01-10T06:36:38.195Z,28.23
2018-01-10T06:37:39.249Z,28.83
2018-01-10T06:38:40.318Z,25.73
2018-01-10T06:39:41.465Z,27.60
2018-01-10T06:40:42.544Z,26.42
2018-01-10T06:41:43.638Z,33.70
2018-01-10T06:42:44.707Z,29.65
2018-01-10T06:43:46.523Z,25.88
2018-01-10T06:44:47.575Z,30.40
2018-01-10T06:45:48.670Z,28.65
2018-01-10T06:46:49.736Z,25.25
2018-01-10T06:47:50.806Z,23.62
2018-01-10T06:48:52.965Z,25.35
2018-01-10T06:49:55.647Z,22.27
2018-01-10T06:50:56.982Z,33.80
2018-01-10T06:51:58.068Z,28.27
2018-01-10T06:52:59.127Z,30.00
2018-01-10T06:54:00.226Z,30.80
2018-01-10T06:55:01.291Z,28.20
2018-01-10T06:56:03.091Z,24.70
2018-01-10T06:57:04.196Z,24.00
2018-01-10T06:58:05.302Z,31.98
2018-01-10T06:59:06.395Z,26.50
2018-01-10T07:00:07.459Z,27.87
2018-01-10T07:01:09.284Z,26.45
2018-01-10T07:02:10.389Z,30.35
2018-01-10T07:03:11.463Z,26.60
2018-01-10T07:04:12.534Z,30.17
2018-01-10T07:05:13.601Z,21.02
2018-01-10T07:06:21.611Z,27.77
2018-01-10T07:07:22.671Z,29.02
2018-01-10T07:08:24.482Z,23.35
2018-01-10T07:09:25.558Z,27.90
2018-01-10T07:10:26.653Z,27.70
2018-01-10T07:11:27.715Z,24.95
2018-01-10T07:12:28.822Z,27.85
2018-01-10T07:13:29.966Z,23.52
2018-01-10T07:14:31.059Z,25.80
2018-01-10T07:15:32.131Z,24.23
2018-01-10T07:16:33.212Z,24.05
2018-01-10T07:17:34.301Z,27.52
2018-01-10T07:18:35.364Z,24.60
2018-01-10T07:19:36.439Z,29.08
2018-01-10T07:20:37.523Z,26.12
2018-01-10T07:21:38.726Z,24.90
2018-01-10T07:22:40.550Z,30.08
2018-01-10T07:23:41.620Z,27.40
2018-01-10T07:24:43.463Z,26.50
2018-01-10T07:25:45.269Z,25.92
2018-01-10T07:26:46.345Z,26.73
2018-01-10T07:27:48.155Z,29.80
2018-01-10T07:28:49.270Z,21.08
2018-01-10T07:29:50.412Z,29.77
2018-01-10T07:30:51.488Z,23.87
2018-01-10T07:31:52.547Z,27.27
2018-01-10T07:32:53.647Z,23.87
2018-01-10T07:33:54.731Z,24.87
2018-01-10T07:34:55.805Z,21.52
2018-01-10T07:35:56.862Z,28.67
2018-01-10T07:36:58.669Z,23.55
2018-01-10T07:37:59.815Z,21.25
2018-01-10T07:39:00.883Z,26.35
2018-01-10T07:40:01.951Z,25.48
2018-01-10T07:41:03.087Z,22.83
2018-01-10T07:42:04.186Z,26.70
2018-01-10T07:43:05.246Z,26.35
2018-01-10T07:44:06.354Z,25.90
2018-01-10T07:45:07.419Z,25.35
2018-01-10T07:46:08.643Z,22.77
2018-01-10T07:47:09.746Z,21.30
2018-01-10T07:48:10.875Z,25.73
2018-01-10T07:49:11.906Z,26.50
2018-01-10T07:50:13.719Z,23.25
2018-01-10T07:51:16.339Z,23.83
2018-01-10T07:52:19.560Z,25.37
2018-01-10T07:53:22.691Z,27.77
2018-01-10T07:54:24.511Z,24.20
2018-01-10T07:55:25.597Z,23.25
2018-01-10T07:56:26.707Z,27.30
2018-01-10T07:57:27.761Z,26.75
2018-01-10T07:58:28.844Z,28.60
2018-01-10T07:59:29.926Z,27.13
2018-01-10T08:00:31.003Z,24.35
2018-01-10T08:01:32.110Z,33.30
2018-01-10T08:02:33.192Z,26.30
2018-01-10T08:03:34.255Z,26.15
2018-01-10T08:04:35.336Z,30.92
2018-01-10T08:05:36.419Z,29.55
2018-01-10T08:06:37.496Z,24.90
2018-01-10T08:07:38.562Z,28.73
2018-01-10T08:08:40.528Z,27.00
2018-01-10T08:09:42.548Z,27.08
2018-01-10T08:10:43.573Z,31.62
2018-01-10T08:11:44.638Z,30.65
2018-01-10T08:12:45.739Z,26.48
2018-01-10T08:13:46.832Z,27.77
2018-01-10T08:14:47.927Z,25.55
2018-01-10T08:15:49.867Z,32.03
2018-01-10T08:16:51.682Z,28.30
2018-01-10T08:17:52.875Z,32.78
2018-01-10T08:18:53.987Z,29.98
2018-01-10T08:19:55.791Z,28.27
2018-01-10T08:20:56.855Z,30.52
2018-01-10T08:21:57.920Z,33.13
2018-01-10T08:22:58.987Z,23.85
2018-01-10T08:24:00.860Z,26.98
2018-01-10T08:25:01.978Z,25.92
2018-01-10T08:26:03.845Z,24.35
2018-01-10T08:27:04.942Z,27.23
2018-01-10T08:28:06.016Z,23.12
2018-01-10T08:29:07.143Z,34.38
2018-01-10T08:30:08.204Z,25.98
2018-01-10T08:31:09.270Z,26.23
2018-01-10T08:32:10.831Z,25.45
2018-01-10T08:33:12.074Z,24.80
2018-01-10T08:34:13.175Z,27.95
2018-01-10T08:35:14.251Z,28.05
2018-01-10T08:36:16.076Z,28.30
2018-01-10T08:37:17.144Z,26.90
2018-01-10T08:38:18.988Z,25.60
2018-01-10T08:39:20.151Z,24.85
2018-01-10T08:40:21.314Z,24.95
2018-01-10T08:41:22.407Z,29.20
2018-01-10T08:42:23.468Z,31.00
2018-01-10T08:43:24.540Z,36.50
2018-01-10T08:44:25.611Z,29.37
2018-01-10T08:45:26.733Z,29.52
2018-01-10T08:46:27.871Z,29.27
2018-01-10T08:47:28.942Z,28.55
2018-01-10T08:48:30.003Z,33.17
2018-01-10T08:49:31.078Z,28.58
2018-01-10T08:50:32.161Z,26.62
2018-01-10T08:51:33.243Z,33.60
2018-01-10T08:52:34.304Z,25.67
2018-01-10T08:53:35.374Z,31.73
2018-01-10T08:54:36.450Z,24.50
2018-01-10T08:55:37.503Z,27.98
2018-01-10T08:56:38.581Z,28.67
2018-01-10T08:57:39.645Z,27.67
2018-01-10T08:58:40.712Z,26.10
2018-01-10T08:59:41.816Z,31.85
2018-01-10T09:00:42.900Z,27.42
2018-01-10T09:01:43.968Z,23.10
2018-01-10T09:02:45.042Z,29.65
2018-01-10T09:03:46.110Z,29.70
2018-01-10T09:04:47.171Z,25.58
2018-01-10T09:05:48.222Z,22.33
2018-01-10T09:06:49.333Z,27.45
2018-01-10T09:07:50.402Z,24.25
2018-01-10T09:08:51.512Z,30.65
2018-01-10T09:09:52.615Z,23.08
2018-01-10T09:10:53.803Z,25.45
2018-01-10T09:11:54.880Z,24.00
2018-01-10T09:12:55.946Z,30.48
2018-01-10T09:13:57.024Z,25.25
2018-01-10T09:14:58.074Z,32.65
2018-01-10T09:15:59.954Z,26.33
2018-01-10T09:17:01.033Z,26.70
2018-01-10T09:18:02.135Z,31.33
2018-01-10T09:19:03.187Z,27.17
2018-01-10T09:20:04.265Z,28.27
2018-01-10T09:21:05.476Z,27.77
2018-01-10T09:22:06.551Z,30.88
2018-01-10T09:23:07.607Z,23.10
2018-01-10T09:24:08.668Z,24.85
2018-01-10T09:25:10.499Z,24.90
2018-01-10T09:26:11.584Z,24.95
2018-01-10T09:27:12.683Z,28.42
2018-01-10T09:28:13.753Z,26.30
2018-01-10T09:29:14.819Z,30.37
2018-01-10T09:30:15.904Z,28.20
2018-01-10T09:31:16.979Z,24.65
2018-01-10T09:32:18.048Z,28.40
2018-01-10T09:33:19.847Z,23.33
2018-01-10T09:34:20.924Z,28.80
2018-01-10T09:35:22.730Z,24.85
2018-01-10T09:36:23.802Z,26.33
2018-01-10T09:37:24.855Z,25.60
2018-01-10T09:38:25.923Z,25.88
2018-01-10T09:39:26.992Z,24.83
2018-01-10T09:40:28.080Z,27.83
2018-01-10T09:41:29.164Z,32.38
2018-01-10T09:42:30.981Z,31.45
2018-01-10T09:43:32.068Z,56.35
2018-01-10T09:44:33.135Z,23.98
2018-01-10T09:45:34.199Z,21.12
2018-01-10T09:46:35.288Z,23.98
2018-01-10T09:47:36.365Z,29.52
2018-01-10T09:48:37.443Z,26.23
2018-01-10T09:49:38.511Z,25.95
2018-01-10T09:50:39.626Z,25.37
2018-01-10T09:51:40.712Z,26.40
2018-01-10T09:52:41.766Z,31.17
2018-01-10T09:53:42.840Z,26.05
2018-01-10T09:54:43.902Z,25.50
2018-01-10T09:55:45.710Z,23.12
2018-01-10T09:56:46.767Z,28.52
2018-01-10T09:57:48.099Z,28.05
2018-01-10T09:58:49.166Z,25.20
2018-01-10T09:59:50.231Z,27.17
2018-01-10T10:00:58.318Z,22.25
2018-01-10T10:02:00.146Z,22.25
2018-01-10T10:03:01.210Z,28.33
2018-01-10T10:04:02.314Z,24.17
2018-01-10T10:05:03.400Z,22.42
2018-01-10T10:06:05.248Z,28.42
2018-01-10T10:07:06.318Z,28.85
2018-01-10T10:08:07.388Z,27.13
2018-01-10T10:09:08.448Z,24.30
2018-01-10T10:10:09.550Z,24.63
2018-01-10T10:11:10.610Z,24.08
2018-01-10T10:12:11.684Z,25.33
2018-01-10T10:13:12.802Z,22.75
2018-01-10T10:14:13.864Z,26.77
2018-01-10T10:15:14.940Z,23.33
2018-01-10T10:16:16.027Z,24.90
2018-01-10T10:17:17.103Z,27.17
2018-01-10T10:18:18.167Z,23.40
2018-01-10T10:19:19.238Z,29.90
2018-01-10T10:20:20.291Z,33.97
2018-01-10T10:21:21.354Z,23.12
2018-01-10T10:22:22.419Z,23.23
2018-01-10T10:23:23.495Z,25.73
2018-01-10T10:24:24.561Z,22.73
2018-01-10T10:25:26.403Z,17.83
2018-01-10T10:26:27.444Z,17.42
2018-01-10T10:27:28.516Z,20.90
2018-01-10T10:28:29.590Z,23.85
2018-01-10T10:29:30.663Z,21.27
2018-01-10T10:30:31.735Z,20.00
2018-01-10T10:31:32.830Z,23.48
2018-01-10T10:32:33.990Z,24.12
2018-01-10T10:33:35.058Z,21.90
2018-01-10T10:34:36.125Z,20.80
2018-01-10T10:35:37.195Z,22.13
2018-01-10T10:36:38.287Z,24.55
2018-01-10T10:37:39.366Z,23.65
2018-01-10T10:38:40.440Z,20.45
2018-01-10T10:39:41.523Z,20.30
2018-01-10T10:40:42.579Z,24.27
2018-01-10T10:41:44.391Z,27.67
2018-01-10T10:42:45.506Z,22.10
2018-01-10T10:43:47.295Z,22.77
2018-01-10T10:44:48.348Z,19.73
2018-01-10T10:45:50.155Z,23.62
2018-01-10T10:46:51.230Z,22.87
2018-01-10T10:47:52.294Z,26.65
2018-01-10T10:48:53.403Z,27.08
2018-01-10T10:49:54.458Z,21.92
2018-01-10T10:50:55.513Z,25.92
2018-01-10T10:51:56.587Z,24.92
2018-01-10T10:52:57.670Z,24.83
2018-01-10T10:53:58.752Z,24.55
2018-01-10T10:54:59.809Z,25.08
2018-01-10T10:56:00.932Z,19.90
2018-01-10T10:57:02.009Z,18.10
2018-01-10T10:58:03.088Z,24.42
2018-01-10T10:59:04.920Z,21.12
2018-01-10T11:00:05.961Z,21.58
2018-01-10T11:01:07.770Z,18.50
2018-01-10T11:02:08.837Z,20.25
2018-01-10T11:03:09.936Z,21.92
2018-01-10T11:04:11.019Z,19.33
2018-01-10T11:05:12.827Z,18.45
2018-01-10T11:06:13.901Z,21.02
2018-01-10T11:07:14.971Z,19.25
2018-01-10T11:08:16.052Z,19.70
2018-01-10T11:09:17.115Z,22.27
2018-01-10T11:10:18.179Z,21.48
2018-01-10T11:11:19.243Z,21.50
2018-01-10T11:12:20.324Z,17.80
2018-01-10T11:13:21.412Z,18.20
2018-01-10T11:14:23.227Z,19.17
2018-01-10T11:15:24.295Z,23.95
2018-01-10T11:16:25.368Z,19.42
2018-01-10T11:17:26.427Z,20.62
2018-01-10T11:18:27.490Z,16.33
2018-01-10T11:19:28.583Z,18.52
2018-01-10T11:20:29.653Z,14.63
2018-01-10T11:21:30.735Z,20.42
2018-01-10T11:22:31.800Z,16.08
2018-01-10T11:23:32.883Z,22.10
2018-01-10T11:24:33.944Z,18.60
2018-01-10T11:25:35.019Z,23.92
2018-01-10T11:26:36.123Z,18.15
2018-01-10T11:27:37.203Z,20.02
2018-01-10T11:28:41.192Z,19.62
2018-01-10T11:29:42.246Z,16.65
2018-01-10T11:30:43.304Z,17.77
2018-01-10T11:31:45.103Z,21.70
2018-01-10T11:32:46.915Z,15.35
2018-01-10T11:33:48.011Z,18.73
2018-01-10T11:34:49.075Z,16.50
2018-01-10T11:35:50.176Z,17.20
2018-01-10T11:36:52.013Z,19.92
2018-01-10T11:37:53.083Z,18.52
2018-01-10T11:38:54.175Z,22.27
2018-01-10T11:39:56.191Z,17.50
2018-01-10T11:40:57.263Z,18.10
2018-01-10T11:41:58.344Z,18.02
2018-01-10T11:42:59.436Z,17.35
2018-01-10T11:44:00.536Z,21.70
2018-01-10T11:45:02.367Z,17.85
2018-01-10T11:46:03.451Z,20.98
2018-01-10T11:47:04.534Z,16.92
2018-01-10T11:48:06.376Z,20.23
2018-01-10T11:49:07.451Z,21.67
2018-01-10T11:50:09.287Z,16.80
2018-01-10T11:51:11.115Z,20.40
2018-01-10T11:52:12.206Z,17.37
2018-01-10T11:53:13.298Z,21.45
2018-01-10T11:54:14.394Z,19.15
2018-01-10T11:55:15.486Z,17.85
2018-01-10T11:56:16.566Z,16.67
2018-01-10T11:57:17.647Z,19.90
2018-01-10T11:58:18.731Z,18.25
2018-01-10T11:59:19.821Z,23.00
2018-01-10T12:00:20.879Z,18.42
2018-01-10T12:01:21.988Z,14.63
2018-01-10T12:02:23.116Z,21.90
2018-01-10T12:03:24.314Z,20.30
2018-01-10T12:04:26.139Z,21.37
2018-01-10T12:05:27.218Z,18.25
2018-01-10T12:06:28.306Z,18.55
2018-01-10T12:07:29.382Z,15.15
2018-01-10T12:08:31.198Z,20.50
2018-01-10T12:09:32.275Z,18.40
2018-01-10T12:10:33.363Z,26.67
2018-01-10T12:11:34.455Z,18.10
2018-01-10T12:12:35.562Z,19.10
2018-01-10T12:13:36.659Z,17.67
2018-01-10T12:14:37.743Z,18.98
2018-01-10T12:15:38.823Z,15.77
2018-01-10T12:16:39.892Z,20.17
2018-01-10T12:17:41.707Z,15.80
2018-01-10T12:18:42.783Z,16.17
2018-01-10T12:19:44.610Z,18.70
2018-01-10T12:20:45.687Z,19.70
2018-01-10T12:21:46.752Z,18.67
2018-01-10T12:22:47.827Z,18.52
2018-01-10T12:23:48.911Z,18.05
2018-01-10T12:24:50.057Z,23.85
2018-01-10T12:25:51.167Z,23.27
2018-01-10T12:26:52.230Z,16.33
2018-01-10T12:27:53.378Z,19.25
2018-01-10T12:28:54.448Z,21.27
2018-01-10T12:29:55.533Z,21.00
2018-01-10T12:30:56.602Z,16.35
2018-01-10T12:31:57.676Z,19.33
2018-01-10T12:32:58.750Z,17.55
2018-01-10T12:34:00.559Z,19.30
2018-01-10T12:35:01.642Z,17.92
2018-01-10T12:36:02.722Z,17.60
2018-01-10T12:37:03.800Z,17.05
2018-01-10T12:38:05.653Z,19.08
2018-01-10T12:39:06.736Z,18.87
2018-01-10T12:40:07.811Z,13.10
2018-01-10T12:41:09.618Z,19.55
2018-01-10T12:42:10.691Z,14.90
2018-01-10T12:43:11.767Z,19.98
2018-01-10T12:44:12.832Z,22.08
2018-01-10T12:45:13.940Z,21.75
2018-01-10T12:46:15.019Z,16.37
2018-01-10T12:47:16.092Z,17.98
2018-01-10T12:48:17.172Z,15.80
2018-01-10T12:49:18.991Z,16.05
2018-01-10T12:50:20.078Z,18.58
2018-01-10T12:51:21.146Z,17.15
2018-01-10T12:52:22.258Z,18.62
2018-01-10T12:53:23.335Z,13.93
2018-01-10T12:54:24.406Z,18.40
2018-01-10T12:55:25.498Z,17.40
2018-01-10T12:56:27.339Z,16.15
2018-01-10T12:57:28.415Z,17.60
2018-01-10T12:58:29.482Z,21.55
2018-01-10T12:59:30.551Z,14.87
2018-01-10T13:00:31.629Z,17.75
2018-01-10T13:01:32.720Z,17.08
2018-01-10T13:02:33.808Z,21.20
2018-01-10T13:03:34.898Z,17.30
2018-01-10T13:04:36.717Z,17.10
2018-01-10T13:05:37.798Z,19.35
2018-01-10T13:06:38.927Z,15.20
2018-01-10T13:07:39.990Z,15.02
2018-01-10T13:08:41.067Z,19.60